createdAt,value
2022-08-12T00:02:03.762Z,17.26
2022-08-12T00:04:51.938Z,17.25
2022-08-12T00:07:37.279Z,17.25
2022-08-12T00:10:23.090Z,17.26
2022-08-12T00:13:10.072Z,17.24
2022-08-12T00:15:56.424Z,17.17
2022-08-12T00:18:41.439Z,17.13
2022-08-12T00:21:26.769Z,17.10
2022-08-12T00:24:12.994Z,17.06
2022-08-12T00:26:59.547Z,17.02
2022-08-12T00:29:48.214Z,16.97
2022-08-12T00:32:54.737Z,16.93
2022-08-12T00:35:39.353Z,16.87
2022-08-12T00:38:25.614Z,16.81
2022-08-12T00:41:10.930Z,16.77
2022-08-12T00:43:38.641Z,16.75
2022-08-12T00:46:25.072Z,16.72
2022-08-12T00:48:53.286Z,16.66
2022-08-12T00:51:21.215Z,16.61
2022-08-12T00:53:49.818Z,16.58
2022-08-12T00:56:19.088Z,16.57
2022-08-12T00:58:50.731Z,16.54
2022-08-12T01:01:21.545Z,16.53
2022-08-12T01:04:08.217Z,16.49
2022-08-12T01:06:55.697Z,16.41
2022-08-12T01:09:41.234Z,16.36
2022-08-12T01:12:11.173Z,16.26
2022-08-12T01:14:41.898Z,16.18
2022-08-12T01:17:11.008Z,16.10
2022-08-12T01:19:39.218Z,16.00
2022-08-12T01:22:30.910Z,15.90
2022-08-12T01:25:07.270Z,15.84
2022-08-12T01:27:36.477Z,15.76
2022-08-12T01:30:08.459Z,15.73
2022-08-12T01:32:38.108Z,15.72
2022-08-12T01:35:08.803Z,15.71
2022-08-12T01:37:43.413Z,15.73
2022-08-12T01:40:35.056Z,15.80
2022-08-12T01:43:07.604Z,15.88
2022-08-12T01:45:43.398Z,16.00
2022-08-12T01:48:18.540Z,16.09
2022-08-12T01:51:00.311Z,16.06
2022-08-12T01:53:50.163Z,16.07
2022-08-12T01:56:25.520Z,16.05
2022-08-12T01:59:15.644Z,15.97
2022-08-12T02:01:45.600Z,15.91
2022-08-12T02:04:40.301Z,15.89
2022-08-12T02:07:35.782Z,15.82
2022-08-12T02:10:49.551Z,15.77
2022-08-12T02:13:42.036Z,15.75
2022-08-12T02:16:22.357Z,15.69
2022-08-12T02:18:58.537Z,15.67
2022-08-12T02:21:38.456Z,15.68
2022-08-12T02:24:10.876Z,15.63
2022-08-12T02:26:41.654Z,15.60
2022-08-12T02:29:10.692Z,15.56
2022-08-12T02:31:39.489Z,15.54
2022-08-12T02:34:10.130Z,15.55
2022-08-12T02:36:40.558Z,15.53
2022-08-12T02:39:11.168Z,15.49
2022-08-12T02:41:43.470Z,15.47
2022-08-12T02:44:16.254Z,15.42
2022-08-12T02:46:50.254Z,15.45
2022-08-12T02:49:24.020Z,15.53
2022-08-12T02:51:51.928Z,15.61
2022-08-12T02:54:21.035Z,15.69
2022-08-12T02:56:50.808Z,15.73
2022-08-12T02:59:22.904Z,15.75
2022-08-12T03:01:53.357Z,15.80
2022-08-12T03:04:26.585Z,15.85
2022-08-12T03:07:02.845Z,15.87
2022-08-12T03:09:56.116Z,15.89
2022-08-12T03:12:24.146Z,15.92
2022-08-12T03:14:55.449Z,15.93
2022-08-12T03:17:30.266Z,15.96
2022-08-12T03:20:09.925Z,16.01
2022-08-12T03:22:40.530Z,16.02
2022-08-12T03:25:17.086Z,16.04
2022-08-12T03:27:49.633Z,16.08
2022-08-12T03:30:20.680Z,16.11
2022-08-12T03:32:50.786Z,16.15
2022-08-12T03:35:41.500Z,16.18
2022-08-12T03:38:12.117Z,16.24
2022-08-12T03:41:09.748Z,16.29
2022-08-12T03:44:06.502Z,16.36
2022-08-12T03:46:57.521Z,16.38
2022-08-12T03:49:43.441Z,16.42
2022-08-12T03:52:28.709Z,16.44
2022-08-12T03:55:13.934Z,16.45
2022-08-12T03:57:58.937Z,16.45
2022-08-12T04:00:26.729Z,16.45
2022-08-12T04:02:59.110Z,16.44
2022-08-12T04:05:55.973Z,16.44
2022-08-12T04:08:15.080Z,16.46
2022-08-12T04:10:56.670Z,16.46
2022-08-12T04:13:25.515Z,16.48
2022-08-12T04:15:54.045Z,16.50
2022-08-12T04:18:23.488Z,16.53
2022-08-12T04:20:52.277Z,16.57
2022-08-12T04:23:21.812Z,16.60
2022-08-12T04:25:49.369Z,16.64
2022-08-12T04:28:17.151Z,16.69
2022-08-12T04:30:44.717Z,16.76
2022-08-12T04:33:13.647Z,16.80
2022-08-12T04:35:42.649Z,16.88
2022-08-12T04:38:10.940Z,16.95
2022-08-12T04:40:38.846Z,17.01
2022-08-12T04:43:06.985Z,17.14
2022-08-12T04:45:54.501Z,17.28
2022-08-12T04:48:22.322Z,17.32
2022-08-12T04:50:51.735Z,17.36
2022-08-12T04:53:19.985Z,17.41
2022-08-12T04:55:48.220Z,17.49
2022-08-12T04:58:15.781Z,17.58
2022-08-12T05:00:57.476Z,17.75
2022-08-12T05:03:26.344Z,17.92
2022-08-12T05:05:56.549Z,18.37
2022-08-12T05:08:25.472Z,19.04
2022-08-12T05:10:54.106Z,20.00
2022-08-12T05:13:24.030Z,21.19
2022-08-12T05:16:04.827Z,22.06
2022-08-12T05:18:33.838Z,23.22
2022-08-12T05:21:04.198Z,24.22
2022-08-12T05:23:32.085Z,24.96
2022-08-12T05:26:00.951Z,25.78
2022-08-12T05:28:30.301Z,26.68
2022-08-12T05:31:01.651Z,27.22
2022-08-12T05:33:33.096Z,28.06
2022-08-12T05:36:00.670Z,28.36
2022-08-12T05:38:52.538Z,28.78
2022-08-12T05:41:20.341Z,29.17
2022-08-12T05:43:51.128Z,29.53
2022-08-12T05:46:19.849Z,29.86
2022-08-12T05:48:47.881Z,30.05
2022-08-12T05:51:15.446Z,30.17
2022-08-12T05:53:44.658Z,30.13
2022-08-12T05:56:23.778Z,30.37
2022-08-12T05:58:52.661Z,30.51
2022-08-12T06:02:09.599Z,30.50
2022-08-12T06:04:09.669Z,30.45
2022-08-12T06:06:41.664Z,30.75
2022-08-12T06:09:11.294Z,30.95
2022-08-12T06:11:41.356Z,30.94
2022-08-12T06:14:29.017Z,31.13
2022-08-12T06:16:57.867Z,31.38
2022-08-12T06:20:26.536Z,31.33
2022-08-12T06:22:15.228Z,31.48
2022-08-12T06:24:44.128Z,31.35
2022-08-12T06:27:18.533Z,31.37
2022-08-12T06:30:08.553Z,31.70
2022-08-12T06:32:34.478Z,31.43
2022-08-12T06:35:26.065Z,31.67
2022-08-12T06:37:56.418Z,31.71
2022-08-12T06:40:43.379Z,31.73
2022-08-12T06:43:10.944Z,31.65
2022-08-12T06:45:45.394Z,31.92
2022-08-12T06:48:14.239Z,31.83
2022-08-12T06:50:42.420Z,31.35
2022-08-12T06:53:11.029Z,31.88
2022-08-12T06:55:57.603Z,31.68
2022-08-12T06:58:26.329Z,31.66
2022-08-12T07:00:55.802Z,31.27
2022-08-12T07:03:28.635Z,31.87
2022-08-12T07:05:58.582Z,31.87
2022-08-12T07:08:29.192Z,31.94
2022-08-12T07:11:00.922Z,31.74
2022-08-12T07:13:30.934Z,31.46
2022-08-12T07:15:58.613Z,31.53
2022-08-12T07:18:32.480Z,31.43
2022-08-12T07:21:03.806Z,31.50
2022-08-12T07:23:33.436Z,31.32
2022-08-12T07:26:03.834Z,30.89
2022-08-12T07:28:34.813Z,30.75
2022-08-12T07:31:04.790Z,30.78
2022-08-12T07:33:32.935Z,30.38
2022-08-12T07:36:03.170Z,30.17
2022-08-12T07:38:33.473Z,30.23
2022-08-12T07:41:06.981Z,30.07
2022-08-12T07:43:36.708Z,29.52
2022-08-12T07:46:10.245Z,29.08
2022-08-12T07:48:41.236Z,28.92
2022-08-12T07:51:09.434Z,28.53
2022-08-12T07:54:00.165Z,27.99
2022-08-12T07:56:27.476Z,27.54
2022-08-12T07:58:58.893Z,27.45
2022-08-12T08:01:26.549Z,27.13
2022-08-12T08:04:17.978Z,26.73
2022-08-12T08:06:46.700Z,26.67
2022-08-12T08:09:16.298Z,26.50
2022-08-12T08:12:03.129Z,26.50
2022-08-12T08:14:32.382Z,26.75
2022-08-12T08:17:03.381Z,26.83
2022-08-12T08:19:33.560Z,27.07
2022-08-12T08:22:32.068Z,27.36
2022-08-12T08:25:34.415Z,27.41
2022-08-12T08:28:02.723Z,27.35
2022-08-12T08:30:31.950Z,27.20
2022-08-12T08:33:00.042Z,27.07
2022-08-12T08:35:38.745Z,26.96
2022-08-12T08:38:28.078Z,26.80
2022-08-12T08:42:15.895Z,26.76
2022-08-12T08:44:07.635Z,26.61
2022-08-12T08:46:37.728Z,26.47
2022-08-12T08:49:05.925Z,26.68
2022-08-12T08:51:33.866Z,26.72
2022-08-12T08:54:01.577Z,26.69
2022-08-12T08:56:30.090Z,26.55
2022-08-12T08:58:57.785Z,26.33
2022-08-12T09:01:38.015Z,26.29
2022-08-12T09:05:09.005Z,26.36
2022-08-12T09:06:56.699Z,26.36
2022-08-12T09:09:24.788Z,26.45
2022-08-12T09:12:27.537Z,26.70
2022-08-12T09:14:55.800Z,26.82
2022-08-12T09:17:26.675Z,26.78
2022-08-12T09:20:10.829Z,26.82
2022-08-12T09:22:48.971Z,27.03
2022-08-12T09:25:25.985Z,27.25
2022-08-12T09:28:03.682Z,27.19
2022-08-12T09:30:42.472Z,27.36
2022-08-12T09:33:18.790Z,27.31
2022-08-12T09:36:03.131Z,27.20
2022-08-12T09:38:33.638Z,27.25
2022-08-12T09:42:34.189Z,27.16
2022-08-12T09:44:38.161Z,27.03
2022-08-12T09:46:57.303Z,26.89
2022-08-12T09:49:26.210Z,27.04
2022-08-12T09:51:55.299Z,26.96
2022-08-12T09:54:33.626Z,27.05
2022-08-12T09:58:44.598Z,27.10
2022-08-12T10:00:12.531Z,26.88
2022-08-12T10:03:01.660Z,26.90
2022-08-12T10:06:27.158Z,26.89
2022-08-12T10:08:22.031Z,26.82
2022-08-12T10:11:05.266Z,26.96
2022-08-12T10:13:43.967Z,27.09
2022-08-12T10:16:18.550Z,27.25
2022-08-12T10:18:53.457Z,27.35
2022-08-12T10:21:24.255Z,27.51
2022-08-12T10:24:05.129Z,27.54
2022-08-12T10:26:51.885Z,27.34
2022-08-12T10:30:37.151Z,27.36
2022-08-12T10:32:43.041Z,27.35
2022-08-12T10:35:15.368Z,27.29
2022-08-12T10:38:33.550Z,27.35
2022-08-12T10:40:34.269Z,27.45
2022-08-12T10:43:23.283Z,27.68
2022-08-12T10:45:58.517Z,27.74
2022-08-12T10:48:33.730Z,28.01
2022-08-12T10:51:51.550Z,28.22
2022-08-12T10:54:00.742Z,28.26
2022-08-12T10:56:34.790Z,28.36
2022-08-12T10:59:03.844Z,28.52
2022-08-12T11:04:17.384Z,28.48
2022-08-12T11:04:34.269Z,28.31
2022-08-12T11:08:34.640Z,28.38
2022-08-12T11:10:01.661Z,28.31
2022-08-12T11:12:55.504Z,28.18
2022-08-12T11:15:33.148Z,28.18
2022-08-12T11:18:11.951Z,28.11
2022-08-12T11:20:47.418Z,28.16
2022-08-12T11:23:35.966Z,27.97
2022-08-12T11:26:06.175Z,27.95
2022-08-12T11:28:36.756Z,27.96
2022-08-12T11:31:07.356Z,27.82
2022-08-12T11:34:05.858Z,27.95
2022-08-12T11:36:28.043Z,28.11
2022-08-12T11:38:56.726Z,28.14
2022-08-12T11:41:31.686Z,28.25
2022-08-12T11:44:32.002Z,28.26
2022-08-12T11:46:50.863Z,28.35
2022-08-12T11:49:30.459Z,28.33
2022-08-12T11:52:01.140Z,28.54
2022-08-12T11:54:29.786Z,28.48
2022-08-12T11:57:00.092Z,28.53
2022-08-12T12:02:20.247Z,28.48
2022-08-12T12:04:52.561Z,28.62
2022-08-12T12:07:22.349Z,28.70
2022-08-12T12:09:53.399Z,28.54
2022-08-12T12:12:25.048Z,28.58
2022-08-12T12:14:54.223Z,28.49
2022-08-12T12:17:22.717Z,28.55
2022-08-12T12:19:50.330Z,28.59
2022-08-12T12:22:23.139Z,28.49
2022-08-12T12:24:54.574Z,28.45
2022-08-12T12:27:42.273Z,28.45
2022-08-12T12:30:19.273Z,28.42
2022-08-12T12:32:54.547Z,28.35
2022-08-12T12:36:16.596Z,28.33
2022-08-12T12:38:12.603Z,28.48
2022-08-12T12:40:43.985Z,28.53
2022-08-12T12:43:13.838Z,28.58
2022-08-12T12:45:44.577Z,28.59
2022-08-12T12:48:15.499Z,28.63
2022-08-12T12:50:45.507Z,28.57
2022-08-12T12:54:05.252Z,28.47
2022-08-12T12:56:15.930Z,28.58
2022-08-12T12:58:45.100Z,28.61
2022-08-12T13:01:26.792Z,28.43
2022-08-12T13:04:01.962Z,28.60
2022-08-12T13:06:31.842Z,28.57
2022-08-12T13:09:02.758Z,28.50
2022-08-12T13:11:41.358Z,28.50
2022-08-12T13:14:28.398Z,28.54
2022-08-12T13:16:58.361Z,28.50
2022-08-12T13:19:38.682Z,28.48
2022-08-12T13:22:21.100Z,28.60
2022-08-12T13:24:54.630Z,28.65
2022-08-12T13:27:28.223Z,28.61
2022-08-12T13:30:00.920Z,28.66
2022-08-12T13:32:31.834Z,28.64
2022-08-12T13:35:04.641Z,28.66
2022-08-12T13:37:55.333Z,28.60
2022-08-12T13:40:24.798Z,28.67
2022-08-12T13:42:57.774Z,28.60
2022-08-12T13:45:29.176Z,28.65
2022-08-12T13:48:00.043Z,28.66
2022-08-12T13:50:32.399Z,28.64
2022-08-12T13:53:01.249Z,28.60
2022-08-12T13:55:59.400Z,28.54
2022-08-12T13:58:30.514Z,28.69
2022-08-12T14:01:04.562Z,28.61
2022-08-12T14:03:51.409Z,28.71
2022-08-12T14:06:20.649Z,28.81
2022-08-12T14:08:50.605Z,28.81
2022-08-12T14:11:19.242Z,28.64
2022-08-12T14:14:05.978Z,28.55
2022-08-12T14:16:48.674Z,28.58
2022-08-12T14:19:23.338Z,28.30
2022-08-12T14:21:59.728Z,28.26
2022-08-12T14:24:40.662Z,28.30
2022-08-12T14:27:10.919Z,28.17
2022-08-12T14:30:05.767Z,28.20
2022-08-12T14:32:34.626Z,28.21
2022-08-12T14:35:03.854Z,28.16
2022-08-12T14:37:56.576Z,28.18
2022-08-12T14:40:25.933Z,28.14
2022-08-12T14:42:55.770Z,28.14
2022-08-12T14:45:45.114Z,28.24
2022-08-12T14:48:15.597Z,28.25
2022-08-12T14:51:02.667Z,28.23
2022-08-12T14:57:05.624Z,28.31
2022-08-12T14:59:25.480Z,28.26
2022-08-12T15:01:54.678Z,28.34
2022-08-12T15:04:28.460Z,28.38
2022-08-12T15:06:56.081Z,28.40
2022-08-12T15:09:29.090Z,28.42
2022-08-12T15:12:03.514Z,28.53
2022-08-12T15:14:31.824Z,28.33
2022-08-12T15:17:00.471Z,28.37
2022-08-12T15:20:11.340Z,28.33
2022-08-12T15:22:39.647Z,28.29
2022-08-12T15:25:07.488Z,28.27
2022-08-12T15:28:03.936Z,28.30
2022-08-12T15:30:31.873Z,28.16
2022-08-12T15:33:00.083Z,28.20
2022-08-12T15:35:50.358Z,28.26
2022-08-12T15:38:22.017Z,28.18
2022-08-12T15:40:53.319Z,28.05
2022-08-12T15:43:35.364Z,28.10
2022-08-12T15:46:15.846Z,28.02
2022-08-12T15:48:47.053Z,28.00
2022-08-12T15:51:57.575Z,27.90
2022-08-12T15:54:30.729Z,27.77
2022-08-12T15:57:03.348Z,27.73
2022-08-12T15:59:32.696Z,27.78
2022-08-12T16:02:18.603Z,27.85
2022-08-12T16:04:50.353Z,27.79
2022-08-12T16:07:30.125Z,27.87
2022-08-12T16:10:06.605Z,27.84
2022-08-12T16:12:41.859Z,27.86
2022-08-12T16:15:11.089Z,27.84
2022-08-12T16:18:19.487Z,27.74
2022-08-12T16:20:33.846Z,27.75
2022-08-12T16:23:36.128Z,27.71
2022-08-12T16:26:06.198Z,27.64
2022-08-12T16:28:41.633Z,27.63
2022-08-12T16:31:18.668Z,27.66
2022-08-12T16:33:59.697Z,27.69
2022-08-12T16:36:29.119Z,27.66
2022-08-12T16:39:01.219Z,27.62
2022-08-12T16:41:38.086Z,27.68
2022-08-12T16:44:08.262Z,27.62
2022-08-12T16:46:36.282Z,27.53
2022-08-12T16:49:08.866Z,27.48
2022-08-12T16:51:46.949Z,27.43
2022-08-12T16:54:18.427Z,27.40
2022-08-12T16:56:50.875Z,27.35
2022-08-12T16:59:26.223Z,27.33
2022-08-12T17:01:59.015Z,27.30
2022-08-12T17:04:29.018Z,27.20
2022-08-12T17:06:56.581Z,27.15
2022-08-12T17:09:34.154Z,27.11
2022-08-12T17:12:08.708Z,27.06
2022-08-12T17:14:37.748Z,27.01
2022-08-12T17:17:18.464Z,26.93
2022-08-12T17:20:30.678Z,26.90
2022-08-12T17:22:52.684Z,26.85
2022-08-12T17:25:23.138Z,26.75
2022-08-12T17:27:57.219Z,26.69
2022-08-12T17:30:27.493Z,26.72
2022-08-12T17:32:56.486Z,26.72
2022-08-12T17:35:37.445Z,26.58
2022-08-12T17:38:13.607Z,26.48
2022-08-12T17:40:46.434Z,26.43
2022-08-12T17:43:54.763Z,26.32
2022-08-12T17:46:12.606Z,26.23
2022-08-12T17:48:55.152Z,26.19
2022-08-12T17:51:24.306Z,26.09
2022-08-12T17:54:11.112Z,26.01
2022-08-12T17:56:43.499Z,25.98
2022-08-12T17:59:12.255Z,25.92
2022-08-12T18:01:45.419Z,25.86
2022-08-12T18:04:22.129Z,25.75
2022-08-12T18:06:51.881Z,25.70
2022-08-12T18:09:19.641Z,25.63
2022-08-12T18:12:08.334Z,25.56
2022-08-12T18:14:36.923Z,25.47
2022-08-12T18:17:08.771Z,25.40
2022-08-12T18:20:05.023Z,25.36
2022-08-12T18:22:31.420Z,25.25
2022-08-12T18:26:13.163Z,25.15
2022-08-12T18:28:15.776Z,25.01
2022-08-12T18:30:53.313Z,24.91
2022-08-12T18:33:25.367Z,24.80
2022-08-12T18:35:56.782Z,24.75
2022-08-12T18:38:26.820Z,24.65
2022-08-12T18:41:20.919Z,24.56
2022-08-12T18:43:59.834Z,24.44
2022-08-12T18:46:34.887Z,24.29
2022-08-12T18:49:18.853Z,24.19
2022-08-12T18:51:54.788Z,24.07
2022-08-12T18:54:25.598Z,24.00
2022-08-12T18:56:54.063Z,23.87
2022-08-12T19:00:01.582Z,23.77
2022-08-12T19:02:19.289Z,23.66
2022-08-12T19:04:52.890Z,23.53
2022-08-12T19:07:23.188Z,23.46
2022-08-12T19:09:58.710Z,23.37
2022-08-12T19:12:56.894Z,23.27
2022-08-12T19:15:27.329Z,23.14
2022-08-12T19:18:01.028Z,23.07
2022-08-12T19:20:31.654Z,23.00
2022-08-12T19:23:07.285Z,22.92
2022-08-12T19:26:01.710Z,22.82
2022-08-12T19:28:35.238Z,22.72
2022-08-12T19:31:44.835Z,22.63
2022-08-12T19:34:56.333Z,22.50
2022-08-12T19:37:19.991Z,22.43
2022-08-12T19:40:09.445Z,22.35
2022-08-12T19:42:42.809Z,22.27
2022-08-12T19:45:15.788Z,22.20
2022-08-12T19:47:46.504Z,22.10
2022-08-12T19:50:14.794Z,22.05
2022-08-12T19:52:48.053Z,22.01
2022-08-12T19:55:21.815Z,21.93
2022-08-12T19:58:01.481Z,21.89
2022-08-12T20:00:30.610Z,21.86
2022-08-12T20:03:00.527Z,21.81
2022-08-12T20:06:05.930Z,21.78
2022-08-12T20:08:31.266Z,21.71
2022-08-12T20:12:14.577Z,21.64
2022-08-12T20:14:00.795Z,21.60
2022-08-12T20:16:52.352Z,21.56
2022-08-12T20:19:53.047Z,21.50
2022-08-12T20:22:24.384Z,21.45
2022-08-12T20:24:58.028Z,21.40
2022-08-12T20:28:04.448Z,21.33
2022-08-12T20:30:18.111Z,21.28
2022-08-12T20:32:56.040Z,21.24
2022-08-12T20:36:05.824Z,21.19
2022-08-12T20:38:26.494Z,21.14
2022-08-12T20:40:55.201Z,21.08
2022-08-12T20:43:24.316Z,21.05
2022-08-12T20:45:57.589Z,20.99
2022-08-12T20:48:28.532Z,20.94
2022-08-12T20:51:04.299Z,20.89
2022-08-12T20:53:57.776Z,20.86
2022-08-12T20:56:30.370Z,20.83
2022-08-12T20:59:00.805Z,20.80
2022-08-12T21:01:36.817Z,20.77
2022-08-12T21:04:34.477Z,20.75
2022-08-12T21:07:09.709Z,20.72
2022-08-12T21:09:41.899Z,20.68
2022-08-12T21:12:27.346Z,20.63
2022-08-12T21:15:16.627Z,20.60
2022-08-12T21:18:08.775Z,20.56
2022-08-12T21:20:35.700Z,20.49
2022-08-12T21:23:06.349Z,20.45
2022-08-12T21:25:44.481Z,20.39
2022-08-12T21:28:13.033Z,20.35
2022-08-12T21:30:54.702Z,20.32
2022-08-12T21:33:31.306Z,20.26
2022-08-12T21:36:00.904Z,20.22
2022-08-12T21:38:40.222Z,20.17
2022-08-12T21:41:15.686Z,20.12
2022-08-12T21:43:45.156Z,20.07
2022-08-12T21:46:35.327Z,20.04
2022-08-12T21:49:05.386Z,20.01
2022-08-12T21:51:49.216Z,19.96
2022-08-12T21:54:22.019Z,19.92
2022-08-12T21:56:50.413Z,19.88
2022-08-12T21:59:18.829Z,19.88
2022-08-12T22:01:48.496Z,19.88
2022-08-12T22:04:35.543Z,19.87
2022-08-12T22:07:06.076Z,19.85
2022-08-12T22:09:43.126Z,19.83
2022-08-12T22:12:28.912Z,19.80
2022-08-12T22:14:56.532Z,19.76
2022-08-12T22:17:33.878Z,19.74
2022-08-12T22:20:21.725Z,19.71
2022-08-12T22:22:56.334Z,19.69
2022-08-12T22:25:27.571Z,19.69
2022-08-12T22:28:12.772Z,19.66
2022-08-12T22:30:58.047Z,19.62
2022-08-12T22:33:25.622Z,19.60
2022-08-12T22:35:59.348Z,19.58
2022-08-12T22:38:29.693Z,19.55
2022-08-12T22:41:01.513Z,19.52
2022-08-12T22:44:01.182Z,19.50
2022-08-12T22:46:53.632Z,19.46
2022-08-12T22:49:22.761Z,19.44
2022-08-12T22:52:06.905Z,19.42
2022-08-12T22:54:37.632Z,19.39
2022-08-12T22:57:15.802Z,19.37
2022-08-12T22:59:55.844Z,19.35
2022-08-12T23:02:28.855Z,19.33
2022-08-12T23:04:56.872Z,19.32
2022-08-12T23:07:24.681Z,19.32
2022-08-12T23:09:54.769Z,19.33
2022-08-12T23:12:46.485Z,19.33
2022-08-12T23:15:14.793Z,19.32
2022-08-12T23:17:42.697Z,19.30
2022-08-12T23:20:12.845Z,19.28
2022-08-12T23:22:40.433Z,19.26
2022-08-12T23:25:20.962Z,19.25
2022-08-12T23:28:29.742Z,19.23
2022-08-12T23:31:04.624Z,19.21
2022-08-12T23:34:01.392Z,19.20
2022-08-12T23:36:31.731Z,19.18
2022-08-12T23:40:15.583Z,19.12
2022-08-12T23:42:16.995Z,19.09
2022-08-12T23:44:52.442Z,19.06
2022-08-12T23:47:21.275Z,19.03
2022-08-12T23:49:57.764Z,19.01
2022-08-12T23:52:28.552Z,19.00
2022-08-12T23:55:25.098Z,18.98
2022-08-12T23:58:17.318Z,18.95
